createdAt,value
2022-11-20T00:00:52.951Z,83.58
2022-11-20T00:01:53.011Z,83.47
2022-11-20T00:02:52.823Z,83.47
2022-11-20T00:03:52.843Z,83.47
2022-11-20T00:04:54.252Z,83.68
2022-11-20T00:05:53.053Z,83.68
2022-11-20T00:06:52.918Z,83.47
2022-11-20T00:07:52.767Z,83.26
2022-11-20T00:08:53.063Z,83.26
2022-11-20T00:09:52.735Z,83.26
2022-11-20T00:10:52.815Z,83.47
2022-11-20T00:11:52.811Z,83.26
2022-11-20T00:12:52.770Z,83.37
2022-11-20T00:13:52.716Z,83.58
2022-11-20T00:14:52.763Z,83.79
2022-11-20T00:15:52.706Z,83.79
2022-11-20T00:16:52.759Z,84.00
2022-11-20T00:17:52.682Z,84.00
2022-11-20T00:18:52.649Z,84.10
2022-11-20T00:19:52.621Z,84.00
2022-11-20T00:20:52.701Z,84.25
2022-11-20T00:21:52.637Z,84.14
2022-11-20T00:22:52.659Z,84.03
2022-11-20T00:23:54.898Z,84.14
2022-11-20T00:24:52.556Z,84.25
2022-11-20T00:25:52.617Z,84.14
2022-11-20T00:26:52.574Z,84.14
2022-11-20T00:27:52.522Z,84.14
2022-11-20T00:28:52.617Z,83.83
2022-11-20T00:29:52.619Z,84.03
2022-11-20T00:30:52.505Z,84.14
2022-11-20T00:31:52.570Z,84.14
2022-11-20T00:32:52.469Z,84.03
2022-11-20T00:33:52.563Z,83.72
2022-11-20T00:34:52.423Z,83.72
2022-11-20T00:35:52.519Z,83.61
2022-11-20T00:36:52.408Z,83.83
2022-11-20T00:37:52.459Z,84.03
2022-11-20T00:38:52.352Z,84.14
2022-11-20T00:39:52.340Z,84.25
2022-11-20T00:40:54.792Z,84.25
2022-11-20T00:41:52.394Z,84.25
2022-11-20T00:42:52.349Z,84.35
2022-11-20T00:43:52.412Z,84.25
2022-11-20T00:44:52.377Z,84.14
2022-11-20T00:45:52.313Z,84.25
2022-11-20T00:46:52.365Z,84.45
2022-11-20T00:47:52.282Z,84.56
2022-11-20T00:48:52.200Z,84.77
2022-11-20T00:49:52.281Z,85.19
2022-11-20T00:50:52.275Z,85.19
2022-11-20T00:51:52.324Z,85.19
2022-11-20T00:52:52.240Z,85.13
2022-11-20T00:53:52.247Z,84.98
2022-11-20T00:54:52.233Z,84.49
2022-11-20T00:55:52.257Z,84.49
2022-11-20T00:56:52.180Z,84.70
2022-11-20T00:57:52.149Z,84.81
2022-11-20T00:58:52.155Z,84.81
2022-11-20T00:59:52.154Z,84.91
2022-11-20T01:00:52.211Z,84.91
2022-11-20T01:01:52.145Z,85.02
2022-11-20T01:02:52.143Z,84.91
2022-11-20T01:03:52.039Z,84.91
2022-11-20T01:04:52.172Z,84.81
2022-11-20T01:05:52.552Z,84.70
2022-11-20T01:06:52.131Z,84.91
2022-11-20T01:07:52.297Z,84.91
2022-11-20T01:08:52.332Z,84.91
2022-11-20T01:09:51.993Z,84.49
2022-11-20T01:10:52.084Z,84.70
2022-11-20T01:11:51.914Z,84.70
2022-11-20T01:12:51.982Z,84.81
2022-11-20T01:13:52.251Z,84.70
2022-11-20T01:14:51.966Z,84.81
2022-11-20T01:15:51.910Z,84.81
2022-11-20T01:16:52.704Z,84.91
2022-11-20T01:17:51.937Z,85.02
2022-11-20T01:18:51.932Z,85.23
2022-11-20T01:19:51.875Z,85.33
2022-11-20T01:20:52.951Z,85.23
2022-11-20T01:21:51.868Z,85.23
2022-11-20T01:22:51.849Z,85.33
2022-11-20T01:23:51.950Z,85.44
2022-11-20T01:24:51.822Z,85.33
2022-11-20T01:25:51.818Z,85.44
2022-11-20T01:26:51.946Z,85.65
2022-11-20T01:27:51.724Z,85.75
2022-11-20T01:28:51.976Z,85.86
2022-11-20T01:29:53.152Z,85.96
2022-11-20T01:30:51.757Z,85.86
2022-11-20T01:31:51.687Z,85.86
2022-11-20T01:32:51.724Z,85.55
2022-11-20T01:33:51.660Z,85.44
2022-11-20T01:34:51.627Z,85.69
2022-11-20T01:35:51.676Z,86.00
2022-11-20T01:36:51.690Z,86.11
2022-11-20T01:37:51.609Z,86.21
2022-11-20T01:38:51.662Z,86.11
2022-11-20T01:39:51.610Z,86.21
2022-11-20T01:40:51.678Z,86.00
2022-11-20T01:41:51.660Z,86.43
2022-11-20T01:42:51.719Z,86.63
2022-11-20T01:43:51.560Z,86.74
2022-11-20T01:44:51.695Z,86.74
2022-11-20T01:45:51.594Z,86.74
2022-11-20T01:46:51.443Z,86.74
2022-11-20T01:47:51.518Z,86.63
2022-11-20T01:48:51.542Z,86.53
2022-11-20T01:49:51.472Z,86.32
2022-11-20T01:50:51.458Z,86.21
2022-11-20T01:51:51.522Z,86.32
2022-11-20T01:52:51.568Z,86.53
2022-11-20T01:53:51.556Z,86.63
2022-11-20T01:54:51.434Z,86.63
2022-11-20T01:55:51.429Z,86.63
2022-11-20T01:56:51.542Z,86.53
2022-11-20T01:57:51.498Z,86.63
2022-11-20T01:58:51.404Z,86.74
2022-11-20T01:59:51.328Z,86.74
2022-11-20T02:00:51.351Z,86.85
2022-11-20T02:01:51.600Z,86.85
2022-11-20T02:02:54.196Z,86.53
2022-11-20T02:03:51.343Z,86.32
2022-11-20T02:04:51.330Z,86.32
2022-11-20T02:05:51.407Z,86.43
2022-11-20T02:06:51.295Z,86.63
2022-11-20T02:07:51.290Z,86.53
2022-11-20T02:08:51.278Z,86.32
2022-11-20T02:09:54.794Z,86.32
2022-11-20T02:10:52.148Z,86.21
2022-11-20T02:11:51.201Z,86.11
2022-11-20T02:12:51.166Z,85.90
2022-11-20T02:13:51.216Z,86.00
2022-11-20T02:14:51.145Z,86.21
2022-11-20T02:15:51.243Z,86.32
2022-11-20T02:16:51.144Z,86.43
2022-11-20T02:17:51.111Z,86.63
2022-11-20T02:18:51.143Z,86.88
2022-11-20T02:19:51.353Z,86.99
2022-11-20T02:20:51.115Z,87.10
2022-11-20T02:21:51.039Z,87.10
2022-11-20T02:22:51.176Z,87.20
2022-11-20T02:23:51.208Z,87.41
2022-11-20T02:24:51.128Z,87.52
2022-11-20T02:25:51.029Z,87.52
2022-11-20T02:26:50.990Z,87.52
2022-11-20T02:27:50.979Z,87.62
2022-11-20T02:28:51.302Z,87.73
2022-11-20T02:29:50.968Z,87.52
2022-11-20T02:30:51.090Z,87.73
2022-11-20T02:31:51.251Z,87.62
2022-11-20T02:32:50.984Z,87.62
2022-11-20T02:33:51.021Z,87.52
2022-11-20T02:34:51.027Z,87.52
2022-11-20T02:35:50.967Z,87.52
2022-11-20T02:36:51.102Z,87.41
2022-11-20T02:37:50.911Z,87.30
2022-11-20T02:38:50.869Z,87.41
2022-11-20T02:39:50.804Z,87.41
2022-11-20T02:40:55.290Z,87.55
2022-11-20T02:41:50.928Z,87.55
2022-11-20T02:42:51.420Z,87.55
2022-11-20T02:43:50.862Z,87.55
2022-11-20T02:44:50.880Z,87.66
2022-11-20T02:45:50.857Z,87.66
2022-11-20T02:46:50.911Z,87.76
2022-11-20T02:47:50.906Z,87.87
2022-11-20T02:48:50.926Z,87.87
2022-11-20T02:49:50.697Z,87.66
2022-11-20T02:50:50.754Z,87.55
2022-11-20T02:51:50.690Z,87.45
2022-11-20T02:52:50.846Z,87.55
2022-11-20T02:53:50.768Z,87.45
2022-11-20T02:54:51.063Z,87.55
2022-11-20T02:55:50.869Z,87.66
2022-11-20T02:56:50.659Z,87.55
2022-11-20T02:57:50.758Z,87.35
2022-11-20T02:58:50.737Z,87.35
2022-11-20T02:59:50.714Z,87.24
2022-11-20T03:00:50.782Z,86.93
2022-11-20T03:01:50.602Z,87.35
2022-11-20T03:02:50.571Z,87.24
2022-11-20T03:03:50.591Z,87.38
2022-11-20T03:04:50.647Z,87.49
2022-11-20T03:05:50.497Z,87.49
2022-11-20T03:06:50.659Z,87.81
2022-11-20T03:07:50.647Z,87.81
2022-11-20T03:08:50.601Z,87.81
2022-11-20T03:09:50.644Z,87.91
2022-11-20T03:10:50.540Z,88.02
2022-11-20T03:11:50.547Z,88.12
2022-11-20T03:12:50.483Z,88.23
2022-11-20T03:13:50.501Z,88.44
2022-11-20T03:14:53.320Z,88.44
2022-11-20T03:15:50.604Z,88.54
2022-11-20T03:16:50.348Z,88.54
2022-11-20T03:17:50.481Z,88.33
2022-11-20T03:18:50.498Z,88.12
2022-11-20T03:19:50.401Z,87.91
2022-11-20T03:20:50.434Z,88.02
2022-11-20T03:21:50.472Z,88.23
2022-11-20T03:22:50.338Z,88.44
2022-11-20T03:23:50.383Z,88.44
2022-11-20T03:24:50.449Z,88.44
2022-11-20T03:25:50.318Z,88.33
2022-11-20T03:26:50.222Z,88.02
2022-11-20T03:27:50.380Z,87.60
2022-11-20T03:28:50.271Z,87.49
2022-11-20T03:29:50.219Z,87.91
2022-11-20T03:30:50.258Z,88.23
2022-11-20T03:31:50.270Z,88.44
2022-11-20T03:32:50.157Z,88.54
2022-11-20T03:33:50.317Z,88.33
2022-11-20T03:34:50.464Z,88.02
2022-11-20T03:35:50.159Z,88.02
2022-11-20T03:36:50.206Z,88.02
2022-11-20T03:37:50.113Z,88.33
2022-11-20T03:38:50.155Z,88.44
2022-11-20T03:39:50.238Z,88.69
2022-11-20T03:40:50.146Z,88.79
2022-11-20T03:41:50.075Z,88.79
2022-11-20T03:42:50.066Z,88.69
2022-11-20T03:43:50.045Z,88.69
2022-11-20T03:44:50.573Z,88.48
2022-11-20T03:45:50.401Z,88.48
2022-11-20T03:46:50.107Z,88.37
2022-11-20T03:47:49.937Z,88.27
2022-11-20T03:48:51.842Z,88.27
2022-11-20T03:49:50.003Z,88.58
2022-11-20T03:50:49.991Z,88.58
2022-11-20T03:51:49.913Z,88.69
2022-11-20T03:52:49.885Z,88.58
2022-11-20T03:53:50.021Z,88.58
2022-11-20T03:54:49.943Z,88.69
2022-11-20T03:55:49.957Z,88.58
2022-11-20T03:56:50.025Z,88.69
2022-11-20T03:57:49.906Z,88.58
2022-11-20T03:58:49.925Z,88.37
2022-11-20T03:59:50.096Z,88.37
2022-11-20T04:00:49.828Z,88.48
2022-11-20T04:01:50.312Z,88.33
2022-11-20T04:02:49.786Z,88.37
2022-11-20T04:03:49.806Z,88.58
2022-11-20T04:04:49.799Z,88.90
2022-11-20T04:05:49.820Z,88.90
2022-11-20T04:06:49.935Z,88.69
2022-11-20T04:07:49.782Z,88.58
2022-11-20T04:08:54.274Z,88.58
2022-11-20T04:09:49.747Z,88.79
2022-11-20T04:10:49.784Z,89.00
2022-11-20T04:11:49.638Z,89.22
2022-11-20T04:12:49.672Z,89.42
2022-11-20T04:13:49.672Z,89.53
2022-11-20T04:14:49.701Z,89.53
2022-11-20T04:15:49.632Z,89.53
2022-11-20T04:16:49.639Z,89.53
2022-11-20T04:17:49.670Z,89.64
2022-11-20T04:18:49.637Z,89.53
2022-11-20T04:19:49.649Z,89.64
2022-11-20T04:20:49.670Z,89.84
2022-11-20T04:21:49.632Z,89.53
2022-11-20T04:22:49.510Z,89.22
2022-11-20T04:23:49.518Z,89.15
2022-11-20T04:24:49.565Z,89.36
2022-11-20T04:25:49.655Z,89.47
2022-11-20T04:26:49.539Z,89.57
2022-11-20T04:27:49.530Z,89.68
2022-11-20T04:28:49.495Z,89.57
2022-11-20T04:29:49.423Z,89.57
2022-11-20T04:30:49.605Z,89.57
2022-11-20T04:31:49.433Z,89.68
2022-11-20T04:32:49.534Z,89.68
2022-11-20T04:33:49.413Z,89.25
2022-11-20T04:34:49.493Z,89.25
2022-11-20T04:35:49.380Z,89.25
2022-11-20T04:36:49.325Z,89.57
2022-11-20T04:37:49.419Z,89.68
2022-11-20T04:38:53.866Z,89.36
2022-11-20T04:39:50.453Z,89.36
2022-11-20T04:40:49.487Z,89.25
2022-11-20T04:41:49.407Z,88.94
2022-11-20T04:42:49.867Z,88.94
2022-11-20T04:43:49.478Z,88.94
2022-11-20T04:44:49.824Z,88.94
2022-11-20T04:45:49.314Z,89.36
2022-11-20T04:46:49.543Z,89.47
2022-11-20T04:47:49.652Z,89.57
2022-11-20T04:48:49.364Z,89.51
2022-11-20T04:49:49.269Z,89.40
2022-11-20T04:50:49.256Z,89.29
2022-11-20T04:51:49.386Z,89.19
2022-11-20T04:52:49.331Z,89.29
2022-11-20T04:53:49.642Z,89.29
2022-11-20T04:54:49.353Z,89.09
2022-11-20T04:55:49.601Z,88.98
2022-11-20T04:56:50.745Z,89.09
2022-11-20T04:58:02.374Z,89.09
2022-11-20T04:58:49.599Z,89.09
2022-11-20T04:59:49.373Z,89.19
2022-11-20T05:00:49.240Z,89.29
2022-11-20T05:01:49.227Z,89.19
2022-11-20T05:02:49.263Z,89.29
2022-11-20T05:03:49.264Z,89.51
2022-11-20T05:04:49.337Z,89.51
2022-11-20T05:05:49.334Z,89.82
2022-11-20T05:06:49.031Z,89.82
2022-11-20T05:07:49.090Z,89.82
2022-11-20T05:08:48.970Z,89.82
2022-11-20T05:09:49.404Z,89.72
2022-11-20T05:10:49.000Z,89.61
2022-11-20T05:11:51.520Z,89.51
2022-11-20T05:12:48.914Z,89.51
2022-11-20T05:13:49.144Z,89.40
2022-11-20T05:14:49.217Z,89.51
2022-11-20T05:15:49.056Z,89.61
2022-11-20T05:16:49.150Z,89.82
2022-11-20T05:17:49.131Z,89.93
2022-11-20T05:18:49.007Z,89.82
2022-11-20T05:19:53.005Z,89.72
2022-11-20T05:20:49.053Z,89.82
2022-11-20T05:21:48.996Z,89.89
2022-11-20T05:22:48.730Z,90.10
2022-11-20T05:23:49.974Z,89.99
2022-11-20T05:24:48.925Z,89.78
2022-11-20T05:25:48.794Z,89.68
2022-11-20T05:26:49.175Z,89.57
2022-11-20T05:27:48.910Z,89.57
2022-11-20T05:28:48.829Z,89.68
2022-11-20T05:29:48.913Z,89.89
2022-11-20T05:30:48.814Z,90.20
2022-11-20T05:31:49.070Z,90.41
2022-11-20T05:32:48.638Z,90.62
2022-11-20T05:33:49.006Z,90.94
2022-11-20T05:34:48.744Z,90.94
2022-11-20T05:35:49.171Z,91.00
2022-11-20T05:36:48.731Z,91.11
2022-11-20T05:37:48.746Z,91.22
2022-11-20T05:38:50.905Z,91.42
2022-11-20T05:39:48.842Z,91.85
2022-11-20T05:40:48.732Z,91.85
2022-11-20T05:41:48.582Z,91.85
2022-11-20T05:42:48.628Z,92.48
2022-11-20T05:43:48.980Z,93.01
2022-11-20T05:44:48.821Z,93.43
2022-11-20T05:45:48.620Z,93.85
2022-11-20T05:46:48.585Z,94.06
2022-11-20T05:47:48.744Z,94.38
2022-11-20T05:48:48.481Z,94.69
2022-11-20T05:49:48.831Z,95.01
2022-11-20T05:50:48.410Z,95.22
2022-11-20T05:51:48.598Z,95.53
2022-11-20T05:52:48.454Z,95.85
2022-11-20T05:53:49.016Z,96.06
2022-11-20T05:54:48.514Z,96.17
2022-11-20T05:55:48.337Z,96.17
2022-11-20T05:56:48.525Z,96.06
2022-11-20T05:57:48.545Z,96.06
2022-11-20T05:58:48.393Z,96.06
2022-11-20T05:59:48.383Z,96.06
2022-11-20T06:00:48.523Z,96.06
2022-11-20T06:01:48.674Z,95.95
2022-11-20T06:02:48.476Z,96.12
2022-11-20T06:03:48.449Z,96.44
2022-11-20T06:04:48.567Z,96.97
2022-11-20T06:05:48.499Z,97.75
2022-11-20T06:06:48.564Z,98.17
2022-11-20T06:07:48.461Z,98.49
2022-11-20T06:08:48.412Z,98.59
2022-11-20T06:09:48.330Z,98.69
2022-11-20T06:10:48.384Z,98.69
2022-11-20T06:11:48.114Z,98.75
2022-11-20T06:12:48.234Z,98.65
2022-11-20T06:13:48.212Z,98.65
2022-11-20T06:14:48.413Z,98.55
2022-11-20T06:15:48.232Z,98.44
2022-11-20T06:16:48.124Z,98.49
2022-11-20T06:17:48.306Z,98.69
2022-11-20T06:18:48.333Z,98.91
2022-11-20T06:19:48.028Z,99.11
2022-11-20T06:20:48.091Z,99.22
2022-11-20T06:21:48.036Z,99.33
2022-11-20T06:22:48.335Z,99.43
2022-11-20T06:23:48.088Z,99.43
2022-11-20T06:24:47.965Z,99.43
2022-11-20T06:25:48.129Z,99.43
2022-11-20T06:26:48.155Z,99.43
2022-11-20T06:27:48.276Z,99.54
2022-11-20T06:28:48.051Z,99.54
2022-11-20T06:29:48.078Z,99.39
2022-11-20T06:30:48.079Z,99.39
2022-11-20T06:31:47.897Z,99.49
2022-11-20T06:32:48.065Z,99.49
2022-11-20T06:33:48.116Z,99.49
2022-11-20T06:34:47.992Z,99.60
2022-11-20T06:35:47.971Z,99.60
2022-11-20T06:36:47.929Z,99.60
2022-11-20T06:37:48.051Z,99.60
2022-11-20T06:38:48.164Z,99.49
2022-11-20T06:39:47.886Z,99.44
2022-11-20T06:40:47.900Z,99.49
2022-11-20T06:41:47.850Z,99.34
2022-11-20T06:42:47.901Z,99.24
2022-11-20T06:43:47.724Z,99.13
2022-11-20T06:44:47.990Z,99.13
2022-11-20T06:45:47.673Z,99.02
2022-11-20T06:46:47.784Z,98.92
2022-11-20T06:47:47.935Z,98.82
2022-11-20T06:48:47.674Z,98.82
2022-11-20T06:49:47.768Z,98.71
2022-11-20T06:50:47.696Z,98.60
2022-11-20T06:51:47.781Z,98.50
2022-11-20T06:52:47.892Z,98.39
2022-11-20T06:53:47.586Z,98.29
2022-11-20T06:54:47.546Z,98.08
2022-11-20T06:55:47.592Z,98.03
2022-11-20T06:56:47.649Z,97.93
2022-11-20T06:57:49.766Z,97.93
2022-11-20T06:58:48.778Z,97.93
2022-11-20T06:59:47.691Z,97.93
2022-11-20T07:00:47.687Z,97.82
2022-11-20T07:01:47.696Z,97.82
2022-11-20T07:02:47.602Z,97.72
2022-11-20T07:03:52.839Z,97.61
2022-11-20T07:04:48.501Z,97.51
2022-11-20T07:05:47.599Z,97.51
2022-11-20T07:06:47.474Z,97.36
2022-11-20T07:07:47.598Z,97.36
2022-11-20T07:08:47.508Z,97.25
2022-11-20T07:09:47.476Z,97.25
2022-11-20T07:10:47.542Z,97.25
2022-11-20T07:11:47.410Z,97.15
2022-11-20T07:12:47.745Z,97.15
2022-11-20T07:13:47.768Z,97.05
2022-11-20T07:14:47.505Z,97.05
2022-11-20T07:15:47.443Z,97.15
2022-11-20T07:16:47.489Z,97.15
2022-11-20T07:17:47.619Z,97.05
2022-11-20T07:18:50.737Z,97.11
2022-11-20T07:19:47.680Z,97.11
2022-11-20T07:20:47.461Z,97.11
2022-11-20T07:21:47.352Z,97.11
2022-11-20T07:22:47.417Z,97.11
2022-11-20T07:23:47.458Z,97.00
2022-11-20T07:24:47.296Z,97.00
2022-11-20T07:25:47.213Z,97.11
2022-11-20T07:26:47.416Z,97.84
2022-11-20T07:27:47.336Z,98.05
2022-11-20T07:28:47.350Z,97.94
2022-11-20T07:29:47.149Z,97.84
2022-11-20T07:30:47.520Z,97.74
2022-11-20T07:31:47.176Z,97.90
2022-11-20T07:32:47.184Z,97.90
2022-11-20T07:33:47.420Z,97.80
2022-11-20T07:34:47.139Z,97.80
2022-11-20T07:35:47.150Z,97.80
2022-11-20T07:36:47.339Z,97.69
2022-11-20T07:37:47.023Z,97.80
2022-11-20T07:38:47.099Z,97.80
2022-11-20T07:39:47.226Z,97.69
2022-11-20T07:40:47.224Z,97.58
2022-11-20T07:41:47.381Z,97.58
2022-11-20T07:42:47.056Z,97.48
2022-11-20T07:43:47.127Z,97.48
2022-11-20T07:44:47.148Z,97.58
2022-11-20T07:45:47.070Z,97.48
2022-11-20T07:46:46.943Z,97.48
2022-11-20T07:47:47.077Z,97.38
2022-11-20T07:48:46.973Z,97.27
2022-11-20T07:49:46.928Z,97.17
2022-11-20T07:50:46.972Z,97.06
2022-11-20T07:51:50.161Z,96.95
2022-11-20T07:52:46.813Z,96.95
2022-11-20T07:53:47.403Z,96.91
2022-11-20T07:54:46.946Z,96.91
2022-11-20T07:55:47.054Z,97.02
2022-11-20T07:56:46.998Z,96.91
2022-11-20T07:57:46.847Z,96.91
2022-11-20T07:58:46.754Z,97.02
2022-11-20T07:59:47.090Z,97.02
2022-11-20T08:00:46.950Z,97.02
2022-11-20T08:01:46.837Z,97.02
2022-11-20T08:02:46.795Z,97.02
2022-11-20T08:03:46.839Z,97.12
2022-11-20T08:04:46.954Z,97.12
2022-11-20T08:05:46.759Z,96.97
2022-11-20T08:06:46.807Z,96.97
2022-11-20T08:07:46.817Z,96.97
2022-11-20T08:08:46.649Z,97.08
2022-11-20T08:09:46.694Z,97.08
2022-11-20T08:10:46.698Z,97.08
2022-11-20T08:11:46.894Z,97.18
2022-11-20T08:12:46.549Z,97.18
2022-11-20T08:13:46.595Z,97.18
2022-11-20T08:14:46.520Z,97.08
2022-11-20T08:15:46.746Z,96.97
2022-11-20T08:16:46.512Z,96.83
2022-11-20T08:18:08.211Z,96.93
2022-11-20T08:18:47.530Z,96.93
2022-11-20T08:19:46.862Z,96.93
2022-11-20T08:20:46.559Z,97.03
2022-11-20T08:21:46.410Z,97.24
2022-11-20T08:22:46.410Z,97.45
2022-11-20T08:23:46.458Z,97.56
2022-11-20T08:24:46.577Z,97.87
2022-11-20T08:25:46.473Z,97.98
2022-11-20T08:26:46.347Z,98.08
2022-11-20T08:27:46.461Z,98.14
2022-11-20T08:28:46.403Z,98.14
2022-11-20T08:29:46.428Z,98.25
2022-11-20T08:30:46.356Z,98.25
2022-11-20T08:31:46.392Z,98.25
2022-11-20T08:32:46.367Z,98.14
2022-11-20T08:33:46.415Z,98.04
2022-11-20T08:34:46.383Z,97.93
2022-11-20T08:35:46.271Z,97.93
2022-11-20T08:36:46.255Z,97.83
2022-11-20T08:37:46.232Z,97.62
2022-11-20T08:38:46.722Z,97.36
2022-11-20T08:39:46.237Z,97.05
2022-11-20T08:40:46.471Z,96.84
2022-11-20T08:41:46.246Z,96.84
2022-11-20T08:42:46.330Z,96.84
2022-11-20T08:43:46.518Z,96.84
2022-11-20T08:44:46.403Z,96.94
2022-11-20T08:45:46.187Z,96.84
2022-11-20T08:46:46.104Z,96.90
2022-11-20T08:47:47.030Z,96.90
2022-11-20T08:48:46.962Z,96.90
2022-11-20T08:49:46.653Z,96.86
2022-11-20T08:50:46.151Z,96.65
2022-11-20T08:51:46.327Z,96.19
2022-11-20T08:52:46.215Z,96.08
2022-11-20T08:53:46.201Z,95.87
2022-11-20T08:54:46.512Z,95.62
2022-11-20T08:55:46.405Z,95.41
2022-11-20T08:56:47.435Z,95.20
2022-11-20T08:57:50.580Z,94.89
2022-11-20T08:59:16.559Z,94.68
2022-11-20T09:00:05.406Z,94.46
2022-11-20T09:00:49.759Z,94.26
2022-11-20T09:02:01.516Z,94.15
2022-11-20T09:02:45.922Z,94.15
2022-11-20T09:03:46.048Z,94.21
2022-11-20T09:04:45.914Z,94.36
2022-11-20T09:05:45.914Z,94.46
2022-11-20T09:06:45.833Z,94.57
2022-11-20T09:07:46.182Z,94.57
2022-11-20T09:08:46.616Z,94.53
2022-11-20T09:09:46.446Z,94.53
2022-11-20T09:10:46.556Z,94.42
2022-11-20T09:11:45.831Z,94.21
2022-11-20T09:12:45.828Z,94.11
2022-11-20T09:13:49.062Z,94.21
2022-11-20T09:14:52.225Z,94.32
2022-11-20T09:15:47.598Z,94.32
2022-11-20T09:16:45.992Z,94.42
2022-11-20T09:17:45.690Z,94.64
2022-11-20T09:18:47.015Z,94.74
2022-11-20T09:19:48.092Z,94.59
2022-11-20T09:20:48.037Z,94.59
2022-11-20T09:21:50.693Z,94.49
2022-11-20T09:22:47.167Z,94.38
2022-11-20T09:23:45.754Z,94.17
2022-11-20T09:24:45.827Z,94.17
2022-11-20T09:25:45.951Z,94.27
2022-11-20T09:26:46.475Z,94.07
2022-11-20T09:27:47.383Z,93.96
2022-11-20T09:28:51.871Z,93.96
2022-11-20T09:29:46.668Z,93.92
2022-11-20T09:30:45.673Z,93.88
2022-11-20T09:31:45.829Z,93.57
2022-11-20T09:32:57.871Z,93.10
2022-11-20T09:33:51.214Z,92.27
2022-11-20T09:34:48.129Z,91.43
2022-11-20T09:35:45.676Z,91.18
2022-11-20T09:36:45.541Z,90.72
2022-11-20T09:37:45.746Z,89.91
2022-11-20T09:38:45.445Z,89.04
2022-11-20T09:39:45.552Z,87.71
2022-11-20T09:40:45.450Z,86.15
2022-11-20T09:41:45.855Z,85.38
2022-11-20T09:42:45.412Z,85.06
2022-11-20T09:43:45.427Z,84.75
2022-11-20T09:44:45.405Z,84.75
2022-11-20T09:45:45.383Z,84.44
2022-11-20T09:46:45.432Z,83.95
2022-11-20T09:47:45.397Z,83.32
2022-11-20T09:48:45.360Z,81.06
2022-11-20T09:49:45.370Z,79.44
2022-11-20T09:50:45.317Z,77.50
2022-11-20T09:51:45.230Z,75.70
2022-11-20T09:52:45.289Z,75.32
2022-11-20T09:53:45.369Z,74.22
2022-11-20T09:54:45.266Z,72.26
2022-11-20T09:55:45.211Z,71.81
2022-11-20T09:56:45.197Z,72.91
2022-11-20T09:57:45.198Z,72.53
2022-11-20T09:58:45.213Z,72.64
2022-11-20T09:59:45.235Z,73.36
2022-11-20T10:00:45.406Z,73.64
2022-11-20T10:01:45.238Z,72.13
2022-11-20T10:02:45.187Z,71.82
2022-11-20T10:03:45.232Z,69.42
2022-11-20T10:04:45.196Z,70.10
2022-11-20T10:05:45.134Z,70.10
2022-11-20T10:06:45.043Z,70.14
2022-11-20T10:07:45.175Z,68.96
2022-11-20T10:08:45.291Z,70.44
2022-11-20T10:09:45.102Z,71.51
2022-11-20T10:10:48.294Z,72.33
2022-11-20T10:11:46.042Z,71.85
2022-11-20T10:12:45.116Z,72.40
2022-11-20T10:13:45.225Z,73.19
2022-11-20T10:14:44.964Z,74.19
2022-11-20T10:15:45.009Z,75.92
2022-11-20T10:16:45.039Z,77.16
2022-11-20T10:17:44.959Z,78.72
2022-11-20T10:18:44.987Z,80.21
2022-11-20T10:19:44.954Z,80.66
2022-11-20T10:20:44.927Z,81.18
2022-11-20T10:21:44.990Z,81.52
2022-11-20T10:22:44.901Z,81.25
2022-11-20T10:23:44.880Z,82.29
2022-11-20T10:24:44.971Z,82.84
2022-11-20T10:25:44.887Z,83.47
2022-11-20T10:26:44.913Z,83.78
2022-11-20T10:27:44.813Z,83.99
2022-11-20T10:28:52.632Z,83.78
2022-11-20T10:29:45.961Z,83.78
2022-11-20T10:30:44.780Z,83.92
2022-11-20T10:31:44.774Z,84.75
2022-11-20T10:32:44.805Z,84.75
2022-11-20T10:34:10.364Z,84.65
2022-11-20T10:34:45.840Z,84.96
2022-11-20T10:35:44.806Z,85.17
2022-11-20T10:36:44.650Z,85.38
2022-11-20T10:37:44.671Z,84.96
2022-11-20T10:38:44.668Z,85.42
2022-11-20T10:39:44.675Z,85.42
2022-11-20T10:40:44.643Z,85.42
2022-11-20T10:41:44.771Z,85.63
2022-11-20T10:42:44.624Z,85.83
2022-11-20T10:43:44.714Z,86.25
2022-11-20T10:44:44.640Z,86.15
2022-11-20T10:45:44.682Z,86.46
2022-11-20T10:46:44.560Z,86.57
2022-11-20T10:47:44.640Z,86.46
2022-11-20T10:48:44.559Z,86.57
2022-11-20T10:49:44.595Z,86.35
2022-11-20T10:50:44.622Z,86.35
2022-11-20T10:51:45.074Z,86.04
2022-11-20T10:52:44.692Z,86.00
2022-11-20T10:53:44.565Z,86.52
2022-11-20T10:54:44.601Z,86.21
2022-11-20T10:55:44.834Z,85.80
2022-11-20T10:56:49.683Z,85.44
2022-11-20T10:57:45.528Z,85.16
2022-11-20T10:58:44.694Z,83.87
2022-11-20T10:59:44.499Z,82.49
2022-11-20T11:00:44.541Z,81.79
2022-11-20T11:01:44.548Z,80.47
2022-11-20T11:02:45.506Z,78.26
2022-11-20T11:03:44.616Z,76.98
2022-11-20T11:04:44.749Z,76.95
2022-11-20T11:05:44.436Z,76.12
2022-11-20T11:06:44.387Z,75.63
2022-11-20T11:07:44.479Z,76.09
2022-11-20T11:08:44.637Z,76.46
2022-11-20T11:09:44.617Z,77.40
2022-11-20T11:10:45.209Z,77.92
2022-11-20T11:11:44.711Z,78.23
2022-11-20T11:12:44.470Z,78.37
2022-11-20T11:13:44.625Z,78.37
2022-11-20T11:14:44.436Z,78.47
2022-11-20T11:15:44.340Z,78.54
2022-11-20T11:16:44.176Z,77.88
2022-11-20T11:17:44.243Z,77.67
2022-11-20T11:18:44.343Z,77.67
2022-11-20T11:19:44.297Z,77.36
2022-11-20T11:20:44.137Z,76.81
2022-11-20T11:21:44.135Z,76.57
2022-11-20T11:22:44.341Z,75.40
2022-11-20T11:23:44.389Z,74.84
2022-11-20T11:24:44.484Z,75.01
2022-11-20T11:25:44.453Z,74.71
2022-11-20T11:26:44.405Z,74.40
2022-11-20T11:27:44.110Z,73.91
2022-11-20T11:28:45.116Z,74.74
2022-11-20T11:29:44.131Z,74.98
2022-11-20T11:30:44.230Z,74.50
2022-11-20T11:31:44.089Z,75.36
2022-11-20T11:32:43.951Z,76.02
2022-11-20T11:33:44.076Z,75.71
2022-11-20T11:34:44.054Z,76.15
2022-11-20T11:35:48.245Z,76.05
2022-11-20T11:36:46.504Z,76.98
2022-11-20T11:37:44.374Z,77.12
2022-11-20T11:38:44.040Z,77.54
2022-11-20T11:39:44.084Z,77.75
2022-11-20T11:40:43.998Z,77.09
2022-11-20T11:41:44.235Z,77.09
2022-11-20T11:42:54.782Z,76.78
2022-11-20T11:43:44.222Z,76.15
2022-11-20T11:44:44.212Z,76.46
2022-11-20T11:45:43.787Z,76.36
2022-11-20T11:46:43.819Z,75.32
2022-11-20T11:47:44.095Z,74.98
2022-11-20T11:48:48.197Z,74.15
2022-11-20T11:49:44.906Z,74.05
2022-11-20T11:50:43.956Z,74.46
2022-11-20T11:51:43.824Z,74.36
2022-11-20T11:52:43.723Z,74.36
2022-11-20T11:53:43.691Z,74.63
2022-11-20T11:54:43.838Z,72.88
2022-11-20T11:55:43.834Z,73.05
2022-11-20T11:56:43.645Z,72.94
2022-11-20T11:57:43.739Z,72.74
2022-11-20T11:58:43.790Z,72.22
2022-11-20T11:59:43.708Z,73.36
2022-11-20T12:00:44.126Z,72.74
2022-11-20T12:01:43.849Z,72.29
2022-11-20T12:02:43.713Z,71.26
2022-11-20T12:03:43.757Z,70.98
2022-11-20T12:04:43.701Z,70.98
2022-11-20T12:05:43.616Z,71.50
2022-11-20T12:06:43.809Z,71.91
2022-11-20T12:07:47.720Z,71.36
2022-11-20T12:08:43.595Z,69.29
2022-11-20T12:09:43.582Z,68.64
2022-11-20T12:10:43.666Z,68.54
2022-11-20T12:11:43.570Z,68.85
2022-11-20T12:12:43.427Z,67.58
2022-11-20T12:13:43.612Z,66.96
2022-11-20T12:14:43.545Z,66.23
2022-11-20T12:15:43.438Z,65.89
2022-11-20T12:16:43.712Z,65.97
2022-11-20T12:17:43.688Z,65.17
2022-11-20T12:18:43.416Z,65.09
2022-11-20T12:19:43.414Z,66.13
2022-11-20T12:20:43.433Z,65.33
2022-11-20T12:21:43.462Z,65.95
2022-11-20T12:22:43.429Z,66.91
2022-11-20T12:23:43.477Z,68.26
2022-11-20T12:24:43.453Z,67.22
2022-11-20T12:25:43.306Z,67.61
2022-11-20T12:26:43.565Z,67.58
2022-11-20T12:27:43.497Z,66.48
2022-11-20T12:28:45.318Z,63.39
2022-11-20T12:29:43.279Z,62.17
2022-11-20T12:30:43.920Z,63.34
2022-11-20T12:31:43.401Z,63.82
2022-11-20T12:32:43.613Z,63.62
2022-11-20T12:33:43.787Z,64.62
2022-11-20T12:34:43.394Z,65.14
2022-11-20T12:35:43.165Z,64.00
2022-11-20T12:36:43.172Z,64.11
2022-11-20T12:37:43.491Z,63.42
2022-11-20T12:38:43.105Z,62.95
2022-11-20T12:39:43.401Z,64.53
2022-11-20T12:40:43.142Z,65.78
2022-11-20T12:42:07.137Z,65.44
2022-11-20T12:42:43.301Z,64.92
2022-11-20T12:43:53.101Z,64.78
2022-11-20T12:44:43.700Z,65.82
2022-11-20T12:45:44.938Z,66.54
2022-11-20T12:46:43.347Z,65.33
2022-11-20T12:47:43.310Z,66.47
2022-11-20T12:48:46.280Z,65.02
2022-11-20T12:49:43.287Z,66.71
2022-11-20T12:51:08.048Z,67.54
2022-11-20T12:51:44.039Z,67.98
2022-11-20T12:52:42.941Z,68.60